Detall de PIREP

Printer-friendly versionPDF version

[2013/12/29 12:22:00]
Flight IATA:CT1004
Pilot Number:012
Company ICAO:CAT
Aircraft Type:B752/E
PAX:180
Aircraft Registration:PAX
Departing Airport: LEVT
Destination Airport: LERS
Alternate Airport:LEPA
Online: VATSIM
Route:PPN UM601 POSSY
Flight Level:F260
No Slew and time accel
No pause
Crash detect
Detect pilot in Cockpit between each 30 and 45 minutes
12:22 Zero fuel Weight: 171846 Lbs, Fuel Weight: 14733 Lbs
12:22 VATSIM:LEVT 291200Z 22008KT 190V260 9999 BKN040 BKN060 06/00 Q1028
12:22 VATSIM:LERS 291200Z 32010G20KT 270V350 9999 FEW025 14/M00 Q1024
12:23 VOICE CATALONIAN / XMAS CHARTER
12:31 Parking Brakes off
12:37 Take-off
12:37 Take off Weight: 185417 Lbs
12:37 Wind: 224º @ 008 Knots Heading: 216º
12:37 POS N42º 53´ 07´´ W002º 43´ 19´´
12:37 Gear Up: 187 Knots
12:37 Flaps:2 at 188 Knots
12:37 Flaps:1 at 211 Knots
12:38 Flaps:0 at 217 Knots
12:44 TOC
12:44 Fuel Weight: 10986 Lb
12:52 Wind:320º@042 Knots Heading: 109º Ground Speed: 465 Knots Altitude 26433 ft
12:59 TOD
12:59 Fuel Weight: 8890 Lb
13:07 Wind:325º@027 Knots Heading: 113º Ground Speed: 358 Knots Altitude 10718 ft
13:15 Flaps:1 at 181 Knots
13:17 Flaps:2 at 171 Knots
13:17 Flaps:3 at 169 Knots
13:17 Flaps:4 at 163 Knots
13:18 Flaps:5 at 162 Knots
13:18 Gear Down: 162 Knots
13:18 Flaps:6 at 157 Knots
13:20 TouchDown:Rate -69 ft/min Speed: 128 Knots
13:20 VATSIM:LERS 291300Z 29016KT 250V320 9999 FEW035 13/00 Q1024
13:20 Land
13:20 Wind:298º@012 Knots
13:20 Heading: 247º
13:20 Flight Duration: 00:43
13:20 Landing Weight: 179221 Lbs
13:20 POS N41º 08´ 52´´ E001º 10´ 06´´
13:22 Parking brakes on
13:22 Block to Block Duration: 00:51
13:22 Final Fuel: 7250 Lbls
13:22 Spent Fuel: 7482 Lbls
13:22 Flight Length: 251 NM
13:22 TOD Land Length: 103NM

Exportar CSV

Powered by Drupal - Modified by Danger4k